sensor_id;sensor_type;location;lat;lon;timestamp;P1;durP1;ratioP1;P2;durP2;ratioP2
29120;SDS011;16191;49.548;8.658;2023-08-17T00:01:19;3.95;;;1.20;;
29120;SDS011;16191;49.548;8.658;2023-08-17T00:03:46;4.25;;;1.30;;
29120;SDS011;16191;49.548;8.658;2023-08-17T00:06:12;2.72;;;1.38;;
29120;SDS011;16191;49.548;8.658;2023-08-17T00:08:39;1.85;;;1.30;;
29120;SDS011;16191;49.548;8.658;2023-08-17T00:11:05;3.55;;;1.60;;
29120;SDS011;16191;49.548;8.658;2023-08-17T00:13:32;3.03;;;1.27;;
29120;SDS011;16191;49.548;8.658;2023-08-17T00:15:58;2.80;;;1.52;;
29120;SDS011;16191;49.548;8.658;2023-08-17T00:18:25;3.50;;;1.60;;
29120;SDS011;16191;49.548;8.658;2023-08-17T00:20:52;4.57;;;1.30;;
29120;SDS011;16191;49.548;8.658;2023-08-17T00:23:18;2.78;;;1.20;;
29120;SDS011;16191;49.548;8.658;2023-08-17T00:25:47;3.85;;;1.65;;
29120;SDS011;16191;49.548;8.658;2023-08-17T00:28:14;4.00;;;1.50;;
29120;SDS011;16191;49.548;8.658;2023-08-17T00:30:41;4.30;;;1.60;;
29120;SDS011;16191;49.548;8.658;2023-08-17T00:33:07;2.10;;;1.13;;
29120;SDS011;16191;49.548;8.658;2023-08-17T00:35:34;4.07;;;1.20;;
29120;SDS011;16191;49.548;8.658;2023-08-17T00:38:01;3.63;;;1.38;;
29120;SDS011;16191;49.548;8.658;2023-08-17T00:40:27;3.28;;;1.30;;
29120;SDS011;16191;49.548;8.658;2023-08-17T00:42:54;3.28;;;1.55;;
29120;SDS011;16191;49.548;8.658;2023-08-17T00:45:21;6.85;;;1.50;;
29120;SDS011;16191;49.548;8.658;2023-08-17T00:47:48;3.17;;;1.25;;
29120;SDS011;16191;49.548;8.658;2023-08-17T00:50:15;5.20;;;1.58;;
29120;SDS011;16191;49.548;8.658;2023-08-17T00:52:42;5.20;;;1.42;;
29120;SDS011;16191;49.548;8.658;2023-08-17T00:55:09;4.38;;;1.65;;
29120;SDS011;16191;49.548;8.658;2023-08-17T00:57:37;3.13;;;1.25;;
29120;SDS011;16191;49.548;8.658;2023-08-17T01:00:07;4.25;;;1.38;;
29120;SDS011;16191;49.548;8.658;2023-08-17T01:02:35;5.53;;;1.42;;
29120;SDS011;16191;49.548;8.658;2023-08-17T01:05:22;5.13;;;1.33;;
29120;SDS011;16191;49.548;8.658;2023-08-17T01:08:09;2.30;;;1.30;;
29120;SDS011;16191;49.548;8.658;2023-08-17T01:14:05;5.00;;;1.65;;
29120;SDS011;16191;49.548;8.658;2023-08-17T01:19:52;4.55;;;1.80;;
29120;SDS011;16191;49.548;8.658;2023-08-17T01:22:20;4.85;;;1.73;;
29120;SDS011;16191;49.548;8.658;2023-08-17T01:24:49;2.47;;;1.10;;
29120;SDS011;16191;49.548;8.658;2023-08-17T01:27:15;3.25;;;1.30;;
29120;SDS011;16191;49.548;8.658;2023-08-17T01:29:42;3.70;;;1.52;;
29120;SDS011;16191;49.548;8.658;2023-08-17T01:32:10;10.52;;;2.03;;
29120;SDS011;16191;49.548;8.658;2023-08-17T01:34:44;3.78;;;1.85;;
29120;SDS011;16191;49.548;8.658;2023-08-17T01:37:17;3.85;;;1.30;;
29120;SDS011;16191;49.548;8.658;2023-08-17T01:39:47;6.72;;;1.48;;
29120;SDS011;16191;49.548;8.658;2023-08-17T01:42:20;3.90;;;1.50;;
29120;SDS011;16191;49.548;8.658;2023-08-17T01:44:48;2.50;;;1.40;;
29120;SDS011;16191;49.548;8.658;2023-08-17T01:47:15;4.28;;;1.33;;
29120;SDS011;16191;49.548;8.658;2023-08-17T01:49:42;2.15;;;1.50;;
29120;SDS011;16191;49.548;8.658;2023-08-17T01:52:08;4.82;;;1.50;;
29120;SDS011;16191;49.548;8.658;2023-08-17T01:54:35;3.72;;;1.30;;
29120;SDS011;16191;49.548;8.658;2023-08-17T01:57:02;3.92;;;1.52;;
29120;SDS011;16191;49.548;8.658;2023-08-17T01:59:29;2.60;;;1.40;;
29120;SDS011;16191;49.548;8.658;2023-08-17T02:01:55;3.42;;;1.33;;
29120;SDS011;16191;49.548;8.658;2023-08-17T02:04:22;2.83;;;1.30;;
29120;SDS011;16191;49.548;8.658;2023-08-17T02:06:49;4.38;;;1.20;;
29120;SDS011;16191;49.548;8.658;2023-08-17T02:09:15;5.43;;;1.42;;
29120;SDS011;16191;49.548;8.658;2023-08-17T02:11:42;5.13;;;1.65;;
29120;SDS011;16191;49.548;8.658;2023-08-17T02:14:08;3.13;;;1.20;;
29120;SDS011;16191;49.548;8.658;2023-08-17T02:16:35;3.17;;;1.33;;
29120;SDS011;16191;49.548;8.658;2023-08-17T02:19:02;3.03;;;1.38;;
29120;SDS011;16191;49.548;8.658;2023-08-17T02:21:29;4.55;;;1.60;;
29120;SDS011;16191;49.548;8.658;2023-08-17T02:23:55;4.28;;;1.60;;
29120;SDS011;16191;49.548;8.658;2023-08-17T02:26:22;3.25;;;1.83;;
29120;SDS011;16191;49.548;8.658;2023-08-17T02:28:49;3.90;;;1.45;;
29120;SDS011;16191;49.548;8.658;2023-08-17T02:31:15;3.58;;;1.60;;
29120;SDS011;16191;49.548;8.658;2023-08-17T02:33:42;4.05;;;1.60;;
29120;SDS011;16191;49.548;8.658;2023-08-17T02:36:09;4.75;;;1.48;;
29120;SDS011;16191;49.548;8.658;2023-08-17T02:38:35;6.93;;;2.33;;
29120;SDS011;16191;49.548;8.658;2023-08-17T02:41:02;5.22;;;1.85;;
29120;SDS011;16191;49.548;8.658;2023-08-17T02:43:29;6.95;;;2.60;;
29120;SDS011;16191;49.548;8.658;2023-08-17T02:45:56;6.35;;;2.55;;
29120;SDS011;16191;49.548;8.658;2023-08-17T02:48:23;5.43;;;2.30;;
29120;SDS011;16191;49.548;8.658;2023-08-17T02:50:49;5.50;;;2.05;;
29120;SDS011;16191;49.548;8.658;2023-08-17T02:53:16;4.93;;;2.22;;
29120;SDS011;16191;49.548;8.658;2023-08-17T02:55:43;4.72;;;2.15;;
29120;SDS011;16191;49.548;8.658;2023-08-17T02:58:09;6.03;;;2.30;;
29120;SDS011;16191;49.548;8.658;2023-08-17T03:00:36;3.97;;;2.10;;
29120;SDS011;16191;49.548;8.658;2023-08-17T03:03:03;3.97;;;2.53;;
29120;SDS011;16191;49.548;8.658;2023-08-17T03:05:30;8.85;;;2.63;;
29120;SDS011;16191;49.548;8.658;2023-08-17T03:07:57;8.85;;;2.53;;
29120;SDS011;16191;49.548;8.658;2023-08-17T03:10:23;7.00;;;2.33;;
29120;SDS011;16191;49.548;8.658;2023-08-17T03:12:51;5.47;;;2.75;;
29120;SDS011;16191;49.548;8.658;2023-08-17T03:15:18;5.78;;;2.60;;
29120;SDS011;16191;49.548;8.658;2023-08-17T03:17:45;5.25;;;2.85;;
29120;SDS011;16191;49.548;8.658;2023-08-17T03:20:12;7.32;;;3.20;;
29120;SDS011;16191;49.548;8.658;2023-08-17T03:22:39;4.70;;;3.00;;
29120;SDS011;16191;49.548;8.658;2023-08-17T03:25:05;3.05;;;2.47;;
29120;SDS011;16191;49.548;8.658;2023-08-17T03:27:32;5.85;;;3.22;;
29120;SDS011;16191;49.548;8.658;2023-08-17T03:29:59;7.65;;;3.40;;
29120;SDS011;16191;49.548;8.658;2023-08-17T03:32:26;5.57;;;3.38;;
29120;SDS011;16191;49.548;8.658;2023-08-17T03:34:53;5.15;;;3.63;;
29120;SDS011;16191;49.548;8.658;2023-08-17T03:37:20;12.30;;;4.50;;
29120;SDS011;16191;49.548;8.658;2023-08-17T03:39:46;8.00;;;4.13;;
29120;SDS011;16191;49.548;8.658;2023-08-17T03:42:13;18.85;;;5.13;;
29120;SDS011;16191;49.548;8.658;2023-08-17T03:44:40;8.90;;;5.10;;
29120;SDS011;16191;49.548;8.658;2023-08-17T03:47:06;8.55;;;4.65;;
29120;SDS011;16191;49.548;8.658;2023-08-17T03:49:33;7.93;;;5.22;;
29120;SDS011;16191;49.548;8.658;2023-08-17T03:52:00;9.07;;;6.32;;
29120;SDS011;16191;49.548;8.658;2023-08-17T03:54:27;14.38;;;7.00;;
29120;SDS011;16191;49.548;8.658;2023-08-17T03:56:54;20.67;;;9.73;;
29120;SDS011;16191;49.548;8.658;2023-08-17T03:59:20;17.25;;;8.80;;
29120;SDS011;16191;49.548;8.658;2023-08-17T04:01:47;12.70;;;9.13;;
29120;SDS011;16191;49.548;8.658;2023-08-17T04:04:14;12.70;;;9.55;;
29120;SDS011;16191;49.548;8.658;2023-08-17T04:06:41;19.45;;;10.77;;
29120;SDS011;16191;49.548;8.658;2023-08-17T04:09:07;16.63;;;9.50;;
29120;SDS011;16191;49.548;8.658;2023-08-17T04:11:34;20.55;;;11.20;;
29120;SDS011;16191;49.548;8.658;2023-08-17T04:14:03;24.73;;;13.50;;
29120;SDS011;16191;49.548;8.658;2023-08-17T04:16:32;22.83;;;11.90;;
29120;SDS011;16191;49.548;8.658;2023-08-17T04:19:00;16.65;;;12.25;;
29120;SDS011;16191;49.548;8.658;2023-08-17T04:21:26;19.02;;;11.90;;
29120;SDS011;16191;49.548;8.658;2023-08-17T04:23:54;18.92;;;12.32;;
29120;SDS011;16191;49.548;8.658;2023-08-17T04:26:21;23.33;;;13.07;;
29120;SDS011;16191;49.548;8.658;2023-08-17T04:28:48;17.02;;;12.43;;
29120;SDS011;16191;49.548;8.658;2023-08-17T04:31:15;20.63;;;13.52;;
29120;SDS011;16191;49.548;8.658;2023-08-17T04:33:47;26.40;;;14.35;;
29120;SDS011;16191;49.548;8.658;2023-08-17T04:36:14;21.67;;;14.45;;
29120;SDS011;16191;49.548;8.658;2023-08-17T04:38:41;23.90;;;14.13;;
29120;SDS011;16191;49.548;8.658;2023-08-17T04:41:07;20.45;;;14.60;;
29120;SDS011;16191;49.548;8.658;2023-08-17T04:43:35;19.50;;;12.98;;
29120;SDS011;16191;49.548;8.658;2023-08-17T04:46:02;16.45;;;11.98;;
29120;SDS011;16191;49.548;8.658;2023-08-17T04:48:29;16.13;;;11.32;;
29120;SDS011;16191;49.548;8.658;2023-08-17T04:50:55;34.03;;;10.65;;
29120;SDS011;16191;49.548;8.658;2023-08-17T04:53:22;15.20;;;10.88;;
29120;SDS011;16191;49.548;8.658;2023-08-17T04:55:49;15.35;;;11.38;;
29120;SDS011;16191;49.548;8.658;2023-08-17T04:58:15;20.38;;;11.05;;
29120;SDS011;16191;49.548;8.658;2023-08-17T05:00:42;23.23;;;10.65;;
29120;SDS011;16191;49.548;8.658;2023-08-17T05:03:09;37.72;;;11.75;;
29120;SDS011;16191;49.548;8.658;2023-08-17T05:05:51;14.05;;;9.82;;
29120;SDS011;16191;49.548;8.658;2023-08-17T05:08:18;13.07;;;8.80;;
29120;SDS011;16191;49.548;8.658;2023-08-17T05:10:45;14.38;;;11.45;;
29120;SDS011;16191;49.548;8.658;2023-08-17T05:13:12;14.65;;;10.98;;
29120;SDS011;16191;49.548;8.658;2023-08-17T05:15:39;17.38;;;12.18;;
29120;SDS011;16191;49.548;8.658;2023-08-17T05:18:08;20.40;;;12.90;;
29120;SDS011;16191;49.548;8.658;2023-08-17T05:20:36;15.02;;;12.15;;
29120;SDS011;16191;49.548;8.658;2023-08-17T05:23:02;19.58;;;13.43;;
29120;SDS011;16191;49.548;8.658;2023-08-17T05:25:29;18.88;;;11.65;;
29120;SDS011;16191;49.548;8.658;2023-08-17T05:27:56;18.58;;;12.02;;
29120;SDS011;16191;49.548;8.658;2023-08-17T05:30:23;19.55;;;11.80;;
29120;SDS011;16191;49.548;8.658;2023-08-17T05:32:50;19.98;;;12.30;;
29120;SDS011;16191;49.548;8.658;2023-08-17T05:35:18;23.38;;;11.98;;
29120;SDS011;16191;49.548;8.658;2023-08-17T05:37:44;17.48;;;12.38;;
29120;SDS011;16191;49.548;8.658;2023-08-17T05:40:11;14.65;;;11.25;;
29120;SDS011;16191;49.548;8.658;2023-08-17T05:42:38;15.13;;;10.25;;
29120;SDS011;16191;49.548;8.658;2023-08-17T05:45:04;13.40;;;9.70;;
29120;SDS011;16191;49.548;8.658;2023-08-17T05:47:31;13.88;;;9.95;;
29120;SDS011;16191;49.548;8.658;2023-08-17T05:49:58;14.70;;;10.35;;
29120;SDS011;16191;49.548;8.658;2023-08-17T05:52:25;12.70;;;9.50;;
29120;SDS011;16191;49.548;8.658;2023-08-17T05:54:51;16.40;;;10.18;;
29120;SDS011;16191;49.548;8.658;2023-08-17T05:57:18;22.75;;;11.90;;
29120;SDS011;16191;49.548;8.658;2023-08-17T05:59:44;30.95;;;12.98;;
29120;SDS011;16191;49.548;8.658;2023-08-17T06:02:11;16.17;;;10.30;;
29120;SDS011;16191;49.548;8.658;2023-08-17T06:04:38;11.07;;;9.10;;
29120;SDS011;16191;49.548;8.658;2023-08-17T06:07:04;11.57;;;8.30;;
29120;SDS011;16191;49.548;8.658;2023-08-17T06:09:32;13.05;;;10.85;;
29120;SDS011;16191;49.548;8.658;2023-08-17T06:11:59;21.08;;;11.07;;
29120;SDS011;16191;49.548;8.658;2023-08-17T06:14:25;17.95;;;11.05;;
29120;SDS011;16191;49.548;8.658;2023-08-17T06:16:52;15.82;;;11.60;;
29120;SDS011;16191;49.548;8.658;2023-08-17T06:19:18;16.50;;;9.82;;
29120;SDS011;16191;49.548;8.658;2023-08-17T06:21:45;12.98;;;9.70;;
29120;SDS011;16191;49.548;8.658;2023-08-17T06:24:12;16.25;;;9.98;;
29120;SDS011;16191;49.548;8.658;2023-08-17T06:26:38;14.63;;;10.52;;
29120;SDS011;16191;49.548;8.658;2023-08-17T06:29:05;12.65;;;9.80;;
29120;SDS011;16191;49.548;8.658;2023-08-17T06:31:32;13.48;;;10.13;;
29120;SDS011;16191;49.548;8.658;2023-08-17T06:33:59;13.75;;;9.95;;
29120;SDS011;16191;49.548;8.658;2023-08-17T06:36:25;13.65;;;9.82;;
29120;SDS011;16191;49.548;8.658;2023-08-17T06:38:52;15.43;;;10.35;;
29120;SDS011;16191;49.548;8.658;2023-08-17T06:41:19;12.23;;;9.95;;
29120;SDS011;16191;49.548;8.658;2023-08-17T06:43:45;13.32;;;9.93;;
29120;SDS011;16191;49.548;8.658;2023-08-17T06:46:12;13.32;;;9.82;;
29120;SDS011;16191;49.548;8.658;2023-08-17T06:48:39;10.63;;;8.82;;
29120;SDS011;16191;49.548;8.658;2023-08-17T06:51:05;12.30;;;9.02;;
29120;SDS011;16191;49.548;8.658;2023-08-17T06:53:33;11.05;;;8.98;;
29120;SDS011;16191;49.548;8.658;2023-08-17T06:55:59;13.70;;;10.90;;
29120;SDS011;16191;49.548;8.658;2023-08-17T06:58:28;15.80;;;11.77;;
29120;SDS011;16191;49.548;8.658;2023-08-17T07:00:55;20.15;;;13.32;;
29120;SDS011;16191;49.548;8.658;2023-08-17T07:03:22;14.13;;;10.13;;
29120;SDS011;16191;49.548;8.658;2023-08-17T07:05:48;12.80;;;9.50;;
29120;SDS011;16191;49.548;8.658;2023-08-17T07:08:15;18.92;;;10.82;;
29120;SDS011;16191;49.548;8.658;2023-08-17T07:10:43;14.05;;;11.45;;
29120;SDS011;16191;49.548;8.658;2023-08-17T07:13:10;16.17;;;11.55;;
29120;SDS011;16191;49.548;8.658;2023-08-17T07:15:36;16.80;;;11.00;;
29120;SDS011;16191;49.548;8.658;2023-08-17T07:18:03;15.23;;;10.70;;
29120;SDS011;16191;49.548;8.658;2023-08-17T07:20:30;17.83;;;12.38;;
29120;SDS011;16191;49.548;8.658;2023-08-17T07:22:57;14.52;;;10.65;;
29120;SDS011;16191;49.548;8.658;2023-08-17T07:25:24;18.40;;;10.90;;
29120;SDS011;16191;49.548;8.658;2023-08-17T07:27:51;15.02;;;11.00;;
29120;SDS011;16191;49.548;8.658;2023-08-17T07:30:18;18.08;;;10.95;;
29120;SDS011;16191;49.548;8.658;2023-08-17T07:32:44;14.77;;;10.25;;
29120;SDS011;16191;49.548;8.658;2023-08-17T07:35:11;15.27;;;10.10;;
29120;SDS011;16191;49.548;8.658;2023-08-17T07:37:38;11.80;;;9.30;;
29120;SDS011;16191;49.548;8.658;2023-08-17T07:40:05;13.30;;;8.77;;
29120;SDS011;16191;49.548;8.658;2023-08-17T07:42:32;11.05;;;8.90;;
29120;SDS011;16191;49.548;8.658;2023-08-17T07:44:59;8.75;;;7.18;;
29120;SDS011;16191;49.548;8.658;2023-08-17T07:47:26;9.15;;;8.10;;
29120;SDS011;16191;49.548;8.658;2023-08-17T07:49:53;10.95;;;8.25;;
29120;SDS011;16191;49.548;8.658;2023-08-17T07:52:20;13.23;;;8.13;;
29120;SDS011;16191;49.548;8.658;2023-08-17T07:54:46;10.05;;;7.85;;
29120;SDS011;16191;49.548;8.658;2023-08-17T07:57:13;11.50;;;7.93;;
29120;SDS011;16191;49.548;8.658;2023-08-17T07:59:40;9.68;;;7.65;;
29120;SDS011;16191;49.548;8.658;2023-08-17T08:02:07;11.45;;;8.02;;
29120;SDS011;16191;49.548;8.658;2023-08-17T08:04:33;12.73;;;7.47;;
29120;SDS011;16191;49.548;8.658;2023-08-17T08:07:00;9.40;;;5.82;;
29120;SDS011;16191;49.548;8.658;2023-08-17T08:09:27;11.82;;;6.80;;
29120;SDS011;16191;49.548;8.658;2023-08-17T08:11:53;10.05;;;6.57;;
29120;SDS011;16191;49.548;8.658;2023-08-17T08:14:20;7.38;;;5.25;;
29120;SDS011;16191;49.548;8.658;2023-08-17T08:16:47;15.10;;;6.10;;
29120;SDS011;16191;49.548;8.658;2023-08-17T08:19:13;9.20;;;6.10;;
29120;SDS011;16191;49.548;8.658;2023-08-17T08:21:40;7.13;;;5.40;;
29120;SDS011;16191;49.548;8.658;2023-08-17T08:24:07;8.95;;;6.13;;
29120;SDS011;16191;49.548;8.658;2023-08-17T08:26:47;6.68;;;4.97;;
29120;SDS011;16191;49.548;8.658;2023-08-17T08:29:14;7.32;;;4.32;;
29120;SDS011;16191;49.548;8.658;2023-08-17T08:31:41;7.07;;;4.72;;
29120;SDS011;16191;49.548;8.658;2023-08-17T08:34:07;8.75;;;5.15;;
29120;SDS011;16191;49.548;8.658;2023-08-17T08:36:34;7.90;;;4.70;;
29120;SDS011;16191;49.548;8.658;2023-08-17T08:39:01;9.60;;;4.63;;
29120;SDS011;16191;49.548;8.658;2023-08-17T08:41:27;6.65;;;4.80;;
29120;SDS011;16191;49.548;8.658;2023-08-17T08:43:56;7.20;;;4.95;;
29120;SDS011;16191;49.548;8.658;2023-08-17T08:46:23;7.15;;;5.30;;
29120;SDS011;16191;49.548;8.658;2023-08-17T08:51:23;11.57;;;4.30;;
29120;SDS011;16191;49.548;8.658;2023-08-17T08:53:54;5.95;;;3.85;;
29120;SDS011;16191;49.548;8.658;2023-08-17T08:56:30;6.15;;;3.65;;
29120;SDS011;16191;49.548;8.658;2023-08-17T08:59:00;6.10;;;3.85;;
29120;SDS011;16191;49.548;8.658;2023-08-17T09:01:29;6.65;;;4.40;;
29120;SDS011;16191;49.548;8.658;2023-08-17T09:03:58;5.40;;;3.42;;
29120;SDS011;16191;49.548;8.658;2023-08-17T09:06:27;7.35;;;4.28;;
29120;SDS011;16191;49.548;8.658;2023-08-17T09:08:58;7.40;;;5.00;;
29120;SDS011;16191;49.548;8.658;2023-08-17T09:11:27;8.23;;;3.80;;
29120;SDS011;16191;49.548;8.658;2023-08-17T09:13:54;7.22;;;3.60;;
29120;SDS011;16191;49.548;8.658;2023-08-17T09:16:21;7.40;;;3.25;;
29120;SDS011;16191;49.548;8.658;2023-08-17T09:18:52;9.85;;;4.95;;
29120;SDS011;16191;49.548;8.658;2023-08-17T09:21:19;6.85;;;4.70;;
29120;SDS011;16191;49.548;8.658;2023-08-17T09:23:53;9.70;;;3.97;;
29120;SDS011;16191;49.548;8.658;2023-08-17T09:26:29;7.03;;;3.72;;
29120;SDS011;16191;49.548;8.658;2023-08-17T09:28:57;6.70;;;3.92;;
29120;SDS011;16191;49.548;8.658;2023-08-17T09:31:25;5.78;;;3.50;;
29120;SDS011;16191;49.548;8.658;2023-08-17T09:33:52;10.20;;;4.05;;
29120;SDS011;16191;49.548;8.658;2023-08-17T09:36:22;7.57;;;3.97;;
29120;SDS011;16191;49.548;8.658;2023-08-17T09:38:50;8.77;;;3.58;;
29120;SDS011;16191;49.548;8.658;2023-08-17T09:41:18;7.85;;;4.20;;
29120;SDS011;16191;49.548;8.658;2023-08-17T09:43:45;7.15;;;4.93;;
29120;SDS011;16191;49.548;8.658;2023-08-17T09:46:12;12.77;;;4.22;;
29120;SDS011;16191;49.548;8.658;2023-08-17T09:48:40;6.95;;;3.92;;
29120;SDS011;16191;49.548;8.658;2023-08-17T09:51:10;6.22;;;4.53;;
29120;SDS011;16191;49.548;8.658;2023-08-17T09:53:36;4.40;;;3.85;;
29120;SDS011;16191;49.548;8.658;2023-08-17T09:56:04;4.28;;;3.33;;
29120;SDS011;16191;49.548;8.658;2023-08-17T09:58:31;6.13;;;4.55;;
29120;SDS011;16191;49.548;8.658;2023-08-17T10:00:57;4.93;;;4.25;;
29120;SDS011;16191;49.548;8.658;2023-08-17T10:03:27;7.07;;;3.95;;
29120;SDS011;16191;49.548;8.658;2023-08-17T10:05:59;6.10;;;3.88;;
29120;SDS011;16191;49.548;8.658;2023-08-17T10:08:28;5.32;;;4.45;;
29120;SDS011;16191;49.548;8.658;2023-08-17T10:10:57;6.68;;;3.70;;
29120;SDS011;16191;49.548;8.658;2023-08-17T10:13:28;7.97;;;4.35;;
29120;SDS011;16191;49.548;8.658;2023-08-17T10:19:05;10.27;;;3.95;;
29120;SDS011;16191;49.548;8.658;2023-08-17T10:21:46;6.47;;;3.40;;
29120;SDS011;16191;49.548;8.658;2023-08-17T10:24:17;6.65;;;3.63;;
29120;SDS011;16191;49.548;8.658;2023-08-17T10:26:45;6.30;;;3.85;;
29120;SDS011;16191;49.548;8.658;2023-08-17T10:29:12;4.43;;;3.88;;
29120;SDS011;16191;49.548;8.658;2023-08-17T10:31:45;3.53;;;2.65;;
29120;SDS011;16191;49.548;8.658;2023-08-17T10:34:13;7.80;;;4.07;;
29120;SDS011;16191;49.548;8.658;2023-08-17T10:36:40;4.85;;;3.20;;
29120;SDS011;16191;49.548;8.658;2023-08-17T10:39:24;3.58;;;3.25;;
29120;SDS011;16191;49.548;8.658;2023-08-17T10:41:56;8.05;;;2.75;;
29120;SDS011;16191;49.548;8.658;2023-08-17T10:47:20;4.03;;;3.00;;
29120;SDS011;16191;49.548;8.658;2023-08-17T10:49:51;3.83;;;2.40;;
29120;SDS011;16191;49.548;8.658;2023-08-17T10:52:26;4.65;;;2.20;;
29120;SDS011;16191;49.548;8.658;2023-08-17T10:55:00;14.30;;;2.50;;
29120;SDS011;16191;49.548;8.658;2023-08-17T10:57:29;3.88;;;2.38;;
29120;SDS011;16191;49.548;8.658;2023-08-17T11:02:45;4.07;;;2.20;;
29120;SDS011;16191;49.548;8.658;2023-08-17T11:05:33;6.95;;;3.10;;
29120;SDS011;16191;49.548;8.658;2023-08-17T11:08:06;3.42;;;2.50;;
29120;SDS011;16191;49.548;8.658;2023-08-17T11:10:37;9.63;;;3.10;;
29120;SDS011;16191;49.548;8.658;2023-08-17T11:13:04;4.53;;;3.00;;
29120;SDS011;16191;49.548;8.658;2023-08-17T11:15:42;7.05;;;2.83;;
29120;SDS011;16191;49.548;8.658;2023-08-17T11:18:10;5.15;;;2.63;;
29120;SDS011;16191;49.548;8.658;2023-08-17T11:20:39;6.38;;;3.15;;
29120;SDS011;16191;49.548;8.658;2023-08-17T11:23:08;4.55;;;3.45;;
29120;SDS011;16191;49.548;8.658;2023-08-17T11:25:35;5.18;;;3.05;;
29120;SDS011;16191;49.548;8.658;2023-08-17T11:28:03;6.43;;;2.72;;
29120;SDS011;16191;49.548;8.658;2023-08-17T11:30:32;5.22;;;2.28;;
29120;SDS011;16191;49.548;8.658;2023-08-17T11:33:00;8.82;;;2.47;;
29120;SDS011;16191;49.548;8.658;2023-08-17T11:35:27;6.38;;;3.08;;
29120;SDS011;16191;49.548;8.658;2023-08-17T11:37:54;6.00;;;4.18;;
29120;SDS011;16191;49.548;8.658;2023-08-17T11:40:20;3.65;;;2.78;;
29120;SDS011;16191;49.548;8.658;2023-08-17T11:42:47;7.00;;;1.88;;
29120;SDS011;16191;49.548;8.658;2023-08-17T11:45:14;7.30;;;2.20;;
29120;SDS011;16191;49.548;8.658;2023-08-17T11:47:41;4.53;;;2.97;;
29120;SDS011;16191;49.548;8.658;2023-08-17T11:50:10;10.38;;;2.67;;
29120;SDS011;16191;49.548;8.658;2023-08-17T11:52:46;4.90;;;3.08;;
29120;SDS011;16191;49.548;8.658;2023-08-17T11:55:15;4.75;;;2.83;;
29120;SDS011;16191;49.548;8.658;2023-08-17T11:57:44;13.15;;;3.28;;
29120;SDS011;16191;49.548;8.658;2023-08-17T12:00:16;6.65;;;3.05;;
29120;SDS011;16191;49.548;8.658;2023-08-17T12:02:46;5.47;;;2.80;;
29120;SDS011;16191;49.548;8.658;2023-08-17T12:05:13;6.65;;;3.05;;
29120;SDS011;16191;49.548;8.658;2023-08-17T12:07:45;5.70;;;2.20;;
29120;SDS011;16191;49.548;8.658;2023-08-17T12:10:12;5.95;;;2.83;;
29120;SDS011;16191;49.548;8.658;2023-08-17T12:12:38;8.23;;;2.83;;
29120;SDS011;16191;49.548;8.658;2023-08-17T12:15:06;6.32;;;2.88;;
29120;SDS011;16191;49.548;8.658;2023-08-17T12:17:33;5.25;;;3.00;;
29120;SDS011;16191;49.548;8.658;2023-08-17T12:20:00;4.25;;;2.15;;
29120;SDS011;16191;49.548;8.658;2023-08-17T12:22:26;4.20;;;2.40;;
29120;SDS011;16191;49.548;8.658;2023-08-17T12:24:54;3.30;;;2.50;;
29120;SDS011;16191;49.548;8.658;2023-08-17T12:27:21;4.70;;;2.53;;
29120;SDS011;16191;49.548;8.658;2023-08-17T12:29:49;3.92;;;2.60;;
29120;SDS011;16191;49.548;8.658;2023-08-17T12:32:17;3.53;;;2.05;;
29120;SDS011;16191;49.548;8.658;2023-08-17T12:34:45;5.10;;;2.60;;
29120;SDS011;16191;49.548;8.658;2023-08-17T12:37:12;4.45;;;2.45;;
29120;SDS011;16191;49.548;8.658;2023-08-17T12:39:44;6.28;;;2.17;;
29120;SDS011;16191;49.548;8.658;2023-08-17T12:42:11;4.85;;;2.35;;
29120;SDS011;16191;49.548;8.658;2023-08-17T12:44:37;5.00;;;2.10;;
29120;SDS011;16191;49.548;8.658;2023-08-17T12:47:04;3.42;;;2.13;;
29120;SDS011;16191;49.548;8.658;2023-08-17T12:49:31;5.00;;;2.28;;
29120;SDS011;16191;49.548;8.658;2023-08-17T12:51:57;4.70;;;2.30;;
29120;SDS011;16191;49.548;8.658;2023-08-17T12:54:24;5.28;;;2.00;;
29120;SDS011;16191;49.548;8.658;2023-08-17T12:56:50;3.03;;;2.10;;
29120;SDS011;16191;49.548;8.658;2023-08-17T12:59:17;5.25;;;2.10;;
29120;SDS011;16191;49.548;8.658;2023-08-17T13:01:43;3.80;;;1.90;;
29120;SDS011;16191;49.548;8.658;2023-08-17T13:04:10;3.80;;;2.20;;
29120;SDS011;16191;49.548;8.658;2023-08-17T13:06:37;2.33;;;1.90;;
29120;SDS011;16191;49.548;8.658;2023-08-17T13:09:14;4.60;;;2.72;;
29120;SDS011;16191;49.548;8.658;2023-08-17T13:11:42;7.43;;;2.30;;
29120;SDS011;16191;49.548;8.658;2023-08-17T13:14:08;4.13;;;2.38;;
29120;SDS011;16191;49.548;8.658;2023-08-17T13:16:35;3.97;;;2.30;;
29120;SDS011;16191;49.548;8.658;2023-08-17T13:19:01;4.32;;;2.17;;
29120;SDS011;16191;49.548;8.658;2023-08-17T13:21:28;4.75;;;2.55;;
29120;SDS011;16191;49.548;8.658;2023-08-17T13:23:55;5.88;;;2.40;;
29120;SDS011;16191;49.548;8.658;2023-08-17T13:26:22;4.90;;;2.03;;
29120;SDS011;16191;49.548;8.658;2023-08-17T13:28:49;3.65;;;2.42;;
29120;SDS011;16191;49.548;8.658;2023-08-17T13:31:15;2.53;;;2.30;;
29120;SDS011;16191;49.548;8.658;2023-08-17T13:33:50;4.05;;;2.25;;
29120;SDS011;16191;49.548;8.658;2023-08-17T13:36:17;3.13;;;2.20;;
29120;SDS011;16191;49.548;8.658;2023-08-17T13:38:44;4.57;;;2.05;;
29120;SDS011;16191;49.548;8.658;2023-08-17T13:41:12;6.35;;;2.25;;
29120;SDS011;16191;49.548;8.658;2023-08-17T13:43:39;3.80;;;2.10;;
29120;SDS011;16191;49.548;8.658;2023-08-17T13:46:06;3.88;;;2.30;;
29120;SDS011;16191;49.548;8.658;2023-08-17T13:48:32;3.95;;;2.25;;
29120;SDS011;16191;49.548;8.658;2023-08-17T13:50:59;5.00;;;2.65;;
29120;SDS011;16191;49.548;8.658;2023-08-17T13:53:25;2.55;;;2.15;;
29120;SDS011;16191;49.548;8.658;2023-08-17T13:55:52;5.38;;;2.85;;
29120;SDS011;16191;49.548;8.658;2023-08-17T13:58:19;5.25;;;2.30;;
29120;SDS011;16191;49.548;8.658;2023-08-17T14:00:45;4.05;;;2.40;;
29120;SDS011;16191;49.548;8.658;2023-08-17T14:03:12;6.93;;;3.00;;
29120;SDS011;16191;49.548;8.658;2023-08-17T14:05:38;4.05;;;2.17;;
29120;SDS011;16191;49.548;8.658;2023-08-17T14:08:06;4.60;;;2.40;;
29120;SDS011;16191;49.548;8.658;2023-08-17T14:10:33;2.60;;;2.15;;
29120;SDS011;16191;49.548;8.658;2023-08-17T14:13:05;4.25;;;2.60;;
29120;SDS011;16191;49.548;8.658;2023-08-17T14:15:32;3.20;;;2.35;;
29120;SDS011;16191;49.548;8.658;2023-08-17T14:17:58;4.25;;;2.50;;
29120;SDS011;16191;49.548;8.658;2023-08-17T14:20:25;5.93;;;2.60;;
29120;SDS011;16191;49.548;8.658;2023-08-17T14:22:53;3.38;;;2.45;;
29120;SDS011;16191;49.548;8.658;2023-08-17T14:25:19;7.05;;;2.80;;
29120;SDS011;16191;49.548;8.658;2023-08-17T14:27:46;5.07;;;2.65;;
29120;SDS011;16191;49.548;8.658;2023-08-17T14:30:12;4.78;;;2.25;;
29120;SDS011;16191;49.548;8.658;2023-08-17T14:32:39;4.18;;;2.42;;
29120;SDS011;16191;49.548;8.658;2023-08-17T14:35:06;5.88;;;2.25;;
29120;SDS011;16191;49.548;8.658;2023-08-17T14:37:38;3.63;;;1.95;;
29120;SDS011;16191;49.548;8.658;2023-08-17T14:40:06;5.53;;;2.50;;
29120;SDS011;16191;49.548;8.658;2023-08-17T14:42:33;6.13;;;1.80;;
29120;SDS011;16191;49.548;8.658;2023-08-17T14:44:59;3.60;;;2.05;;
29120;SDS011;16191;49.548;8.658;2023-08-17T14:47:32;4.93;;;2.30;;
29120;SDS011;16191;49.548;8.658;2023-08-17T14:49:59;4.00;;;1.90;;
29120;SDS011;16191;49.548;8.658;2023-08-17T14:52:26;4.22;;;2.28;;
29120;SDS011;16191;49.548;8.658;2023-08-17T14:54:59;5.82;;;2.25;;
29120;SDS011;16191;49.548;8.658;2023-08-17T14:57:26;1.98;;;1.77;;
29120;SDS011;16191;49.548;8.658;2023-08-17T14:59:53;2.97;;;2.03;;
29120;SDS011;16191;49.548;8.658;2023-08-17T15:02:20;2.92;;;2.00;;